Time,TemperatureF,DewpointF,PressureIn,WindDirection,WindDirectionDegrees,WindSpeedMPH,WindSpeedGustMPH,Humidity,HourlyPrecipIn,Conditions,Clouds,dailyrainin,SoftwareType,DateUTC
2017-07-21 00:04:00,69.7,68.2,29.95,WNW,300,0.0,0.0,95,0.00,,,0.00,Wunderground v.1.15,2017-07-21 05:04:00,
2017-07-21 00:09:00,69.7,68.2,29.95,WNW,300,0.0,0.0,95,0.00,,,0.00,Wunderground v.1.15,2017-07-21 05:09:00,
2017-07-21 00:15:00,69.5,68.0,29.95,WNW,300,0.0,0.0,95,0.00,,,0.00,Wunderground v.1.15,2017-07-21 05:15:00,
2017-07-21 00:20:00,69.4,67.9,29.95,WNW,300,0.0,0.0,95,0.00,,,0.00,Wunderground v.1.15,2017-07-21 05:20:00,
2017-07-21 00:26:00,69.3,67.8,29.96,WNW,300,0.0,0.0,95,0.00,,,0.00,Wunderground v.1.15,2017-07-21 05:26:00,
2017-07-21 00:31:00,69.1,67.6,29.96,WNW,300,0.0,0.0,95,0.00,,,0.00,Wunderground v.1.15,2017-07-21 05:31:00,
2017-07-21 00:37:00,69.0,67.8,29.96,WNW,300,0.0,0.0,96,0.00,,,0.00,Wunderground v.1.15,2017-07-21 05:37:00,
2017-07-21 00:43:00,69.0,67.8,29.96,WNW,300,0.0,0.0,96,0.00,,,0.00,Wunderground v.1.15,2017-07-21 05:43:00,
2017-07-21 00:48:00,69.0,67.8,29.95,WNW,300,0.0,0.0,96,0.00,,,0.00,Wunderground v.1.15,2017-07-21 05:48:00,
2017-07-21 00:53:00,69.0,67.8,29.95,WNW,300,0.0,0.0,96,0.00,,,0.00,Wunderground v.1.15,2017-07-21 05:53:00,
2017-07-21 00:58:00,68.8,67.3,29.96,WNW,300,0.0,0.0,95,0.00,,,0.00,Wunderground v.1.15,2017-07-21 05:58:00,
2017-07-21 01:04:00,68.7,67.2,29.96,WNW,300,0.0,0.0,95,0.00,,,0.00,Wunderground v.1.15,2017-07-21 06:04:00,
2017-07-21 01:10:00,68.6,67.1,29.96,WNW,300,0.0,0.0,95,0.00,,,0.00,Wunderground v.1.15,2017-07-21 06:10:00,
2017-07-21 01:16:00,68.5,67.0,29.95,WNW,300,0.0,0.0,95,0.00,,,0.00,Wunderground v.1.15,2017-07-21 06:16:00,
2017-07-21 01:22:00,68.5,67.3,29.95,WNW,300,0.0,0.0,96,0.00,,,0.00,Wunderground v.1.15,2017-07-21 06:22:00,
2017-07-21 01:27:00,68.4,67.2,29.94,WNW,300,0.0,0.0,96,0.00,,,0.00,Wunderground v.1.15,2017-07-21 06:27:00,
2017-07-21 01:32:00,68.3,67.1,29.94,WNW,300,0.0,0.0,96,0.00,,,0.00,Wunderground v.1.15,2017-07-21 06:32:00,
2017-07-21 01:37:00,68.2,67.0,29.94,WNW,300,0.0,0.0,96,0.00,,,0.00,Wunderground v.1.15,2017-07-21 06:37:00,
2017-07-21 01:43:00,68.1,66.9,29.95,WNW,300,0.0,0.0,96,0.00,,,0.00,Wunderground v.1.15,2017-07-21 06:43:00,
2017-07-21 01:48:00,68.1,66.9,29.95,WNW,300,0.0,0.0,96,0.00,,,0.00,Wunderground v.1.15,2017-07-21 06:48:00,
2017-07-21 01:53:00,68.1,66.9,29.95,WNW,300,0.0,0.0,96,0.00,,,0.00,Wunderground v.1.15,2017-07-21 06:53:00,
2017-07-21 01:59:00,68.0,66.8,29.95,WNW,300,0.0,0.0,96,0.00,,,0.00,Wunderground v.1.15,2017-07-21 06:59:00,
2017-07-21 02:04:00,67.9,66.7,29.95,WNW,300,0.0,0.0,96,0.00,,,0.00,Wunderground v.1.15,2017-07-21 07:04:00,
2017-07-21 02:10:00,67.8,66.6,29.95,WNW,300,0.0,0.0,96,0.00,,,0.00,Wunderground v.1.15,2017-07-21 07:10:00,
2017-07-21 02:16:00,67.7,66.5,29.95,WNW,300,0.0,0.0,96,0.00,,,0.00,Wunderground v.1.15,2017-07-21 07:16:00,
2017-07-21 02:22:00,67.7,66.5,29.94,WNW,300,0.0,0.0,96,0.00,,,0.00,Wunderground v.1.15,2017-07-21 07:22:00,
2017-07-21 02:28:00,67.7,66.5,29.95,WNW,300,0.0,0.0,96,0.00,,,0.00,Wunderground v.1.15,2017-07-21 07:28:00,
2017-07-21 02:34:00,67.6,66.4,29.94,WNW,300,0.0,0.0,96,0.00,,,0.00,Wunderground v.1.15,2017-07-21 07:34:00,
2017-07-21 02:39:00,67.6,66.4,29.94,WNW,300,0.0,0.0,96,0.00,,,0.00,Wunderground v.1.15,2017-07-21 07:39:00,
2017-07-21 02:45:00,67.5,66.3,29.94,WNW,300,0.0,0.0,96,0.00,,,0.00,Wunderground v.1.15,2017-07-21 07:45:00,
2017-07-21 02:51:00,67.4,66.2,29.93,WNW,300,0.0,0.0,96,0.00,,,0.00,Wunderground v.1.15,2017-07-21 07:51:00,
2017-07-21 02:56:00,67.3,66.1,29.94,WNW,300,0.0,0.0,96,0.00,,,0.00,Wunderground v.1.15,2017-07-21 07:56:00,
2017-07-21 03:01:00,67.2,66.3,29.94,WNW,300,0.0,0.0,97,0.00,,,0.00,Wunderground v.1.15,2017-07-21 08:01:00,
2017-07-21 03:07:00,67.2,66.3,29.94,WNW,300,0.0,0.0,97,0.00,,,0.00,Wunderground v.1.15,2017-07-21 08:07:00,
2017-07-21 03:13:00,67.1,66.2,29.94,WNW,300,0.0,0.0,97,0.00,,,0.00,Wunderground v.1.15,2017-07-21 08:13:00,
2017-07-21 03:19:00,67.0,65.8,29.94,WNW,300,0.0,0.0,96,0.00,,,0.00,Wunderground v.1.15,2017-07-21 08:19:00,
2017-07-21 03:24:00,67.0,65.8,29.94,WNW,300,0.0,0.0,96,0.00,,,0.00,Wunderground v.1.15,2017-07-21 08:24:00,
2017-07-21 03:30:00,67.1,66.2,29.94,WNW,300,0.0,0.0,97,0.00,,,0.00,Wunderground v.1.15,2017-07-21 08:30:00,
2017-07-21 03:35:00,67.2,66.3,29.94,WNW,300,0.0,0.0,97,0.00,,,0.00,Wunderground v.1.15,2017-07-21 08:35:00,
2017-07-21 03:40:00,67.2,66.3,29.94,WNW,300,0.0,0.0,97,0.00,,,0.00,Wunderground v.1.15,2017-07-21 08:40:00,
2017-07-21 03:45:00,67.2,66.3,29.94,WNW,300,0.0,0.0,97,0.00,,,0.00,Wunderground v.1.15,2017-07-21 08:45:00,
2017-07-21 03:51:00,67.2,66.3,29.94,WNW,300,0.0,0.0,97,0.00,,,0.00,Wunderground v.1.15,2017-07-21 08:51:00,
2017-07-21 03:56:00,67.2,66.3,29.94,WNW,300,0.0,0.0,97,0.00,,,0.00,Wunderground v.1.15,2017-07-21 08:56:00,
2017-07-21 04:01:00,67.0,66.1,29.94,WNW,300,0.0,0.0,97,0.00,,,0.00,Wunderground v.1.15,2017-07-21 09:01:00,
2017-07-21 04:07:00,67.0,66.1,29.94,WNW,300,0.0,0.0,97,0.00,,,0.00,Wunderground v.1.15,2017-07-21 09:07:00,
2017-07-21 04:13:00,67.1,66.2,29.94,WNW,300,0.0,0.0,97,0.00,,,0.00,Wunderground v.1.15,2017-07-21 09:13:00,
2017-07-21 04:18:00,66.9,66.0,29.94,WNW,300,0.0,0.0,97,0.00,,,0.00,Wunderground v.1.15,2017-07-21 09:18:00,
2017-07-21 04:23:00,66.8,65.9,29.95,WNW,300,0.0,0.0,97,0.00,,,0.00,Wunderground v.1.15,2017-07-21 09:23:00,
2017-07-21 04:29:00,66.8,65.9,29.95,WNW,300,0.0,0.0,97,0.00,,,0.00,Wunderground v.1.15,2017-07-21 09:29:00,
2017-07-21 04:35:00,66.8,65.9,29.95,WNW,300,0.0,0.0,97,0.00,,,0.00,Wunderground v.1.15,2017-07-21 09:35:00,
2017-07-21 04:40:00,67.0,66.1,29.95,WNW,300,0.0,0.0,97,0.00,,,0.00,Wunderground v.1.15,2017-07-21 09:40:00,
2017-07-21 04:46:00,66.9,66.0,29.95,WNW,300,0.0,0.0,97,0.00,,,0.00,Wunderground v.1.15,2017-07-21 09:46:00,
2017-07-21 04:51:00,66.9,66.0,29.95,WNW,300,0.0,0.0,97,0.00,,,0.00,Wunderground v.1.15,2017-07-21 09:51:00,
2017-07-21 04:56:00,66.8,65.9,29.95,WNW,300,0.0,0.0,97,0.00,,,0.00,Wunderground v.1.15,2017-07-21 09:56:00,
2017-07-21 05:01:00,67.0,66.1,29.94,WNW,300,0.0,0.0,97,0.00,,,0.00,Wunderground v.1.15,2017-07-21 10:01:00,
2017-07-21 05:07:00,67.1,66.2,29.94,WNW,300,0.0,0.0,97,0.00,,,0.00,Wunderground v.1.15,2017-07-21 10:07:00,
2017-07-21 05:12:00,67.0,66.1,29.94,WNW,300,0.0,0.0,97,0.00,,,0.00,Wunderground v.1.15,2017-07-21 10:12:00,
2017-07-21 05:17:00,67.0,66.1,29.94,WNW,300,0.0,0.0,97,0.00,,,0.00,Wunderground v.1.15,2017-07-21 10:17:00,
2017-07-21 05:22:00,67.1,66.2,29.95,WNW,300,0.0,0.0,97,0.00,,,0.00,Wunderground v.1.15,2017-07-21 10:22:00,
2017-07-21 05:28:00,67.3,66.4,29.95,WNW,300,0.0,0.0,97,0.00,,,0.00,Wunderground v.1.15,2017-07-21 10:28:00,
2017-07-21 05:34:00,67.4,66.5,29.94,WNW,300,0.0,0.0,97,0.00,,,0.00,Wunderground v.1.15,2017-07-21 10:34:00,
2017-07-21 05:39:00,67.4,66.5,29.94,WNW,300,0.0,0.0,97,0.00,,,0.00,Wunderground v.1.15,2017-07-21 10:39:00,
2017-07-21 05:45:00,68.0,67.4,29.93,WNW,300,0.0,0.0,98,0.00,,,0.00,Wunderground v.1.15,2017-07-21 10:45:00,
2017-07-21 05:51:00,67.9,67.0,29.94,WNW,300,0.0,0.0,97,0.00,,,0.00,Wunderground v.1.15,2017-07-21 10:51:00,
2017-07-21 05:56:00,67.8,66.9,29.93,WNW,300,0.0,0.0,97,0.00,,,0.00,Wunderground v.1.15,2017-07-21 10:56:00,
2017-07-21 06:02:00,67.7,66.8,29.93,WNW,300,0.0,0.0,97,0.00,,,0.00,Wunderground v.1.15,2017-07-21 11:02:00,
2017-07-21 06:07:00,67.7,66.8,29.94,WNW,300,0.0,0.0,97,0.00,,,0.00,Wunderground v.1.15,2017-07-21 11:07:00,
2017-07-21 06:13:00,67.8,66.9,29.93,WNW,300,0.0,0.0,97,0.00,,,0.00,Wunderground v.1.15,2017-07-21 11:13:00,
2017-07-21 06:18:00,67.8,66.9,29.93,WNW,300,0.0,0.0,97,0.00,,,0.00,Wunderground v.1.15,2017-07-21 11:18:00,
2017-07-21 06:23:00,67.9,67.0,29.93,WNW,300,0.0,0.0,97,0.00,,,0.00,Wunderground v.1.15,2017-07-21 11:23:00,
2017-07-21 06:29:00,68.0,67.1,29.93,WNW,300,0.0,0.0,97,0.00,,,0.00,Wunderground v.1.15,2017-07-21 11:29:00,
2017-07-21 06:34:00,68.1,67.2,29.93,WNW,300,0.0,0.0,97,0.00,,,0.00,Wunderground v.1.15,2017-07-21 11:34:00,
2017-07-21 06:40:00,68.2,67.3,29.93,WNW,300,0.0,0.0,97,0.00,,,0.00,Wunderground v.1.15,2017-07-21 11:40:00,
2017-07-21 06:46:00,68.3,67.4,29.92,WNW,300,0.0,0.0,97,0.00,,,0.00,Wunderground v.1.15,2017-07-21 11:46:00,
2017-07-21 06:50:00,68.4,67.5,29.92,WSW,247,0.0,1.0,97,0.00,,,0.00,Wunderground v.1.15,2017-07-21 11:50:00,
2017-07-21 06:56:00,68.7,67.8,29.92,SSW,209,0.0,1.0,97,0.00,,,0.00,Wunderground v.1.15,2017-07-21 11:56:00,
2017-07-21 07:01:00,68.9,68.0,29.92,SSW,209,0.0,0.0,97,0.00,,,0.00,Wunderground v.1.15,2017-07-21 12:01:00,
2017-07-21 07:06:00,69.3,68.4,29.93,SSW,209,0.0,0.0,97,0.00,,,0.00,Wunderground v.1.15,2017-07-21 12:06:00,
2017-07-21 07:12:00,69.5,68.6,29.93,SSW,209,0.0,0.0,97,0.00,,,0.00,Wunderground v.1.15,2017-07-21 12:12:00,
2017-07-21 07:18:00,70.0,69.1,29.93,SE,132,0.0,0.0,97,0.00,,,0.00,Wunderground v.1.15,2017-07-21 12:18:00,
2017-07-21 07:24:00,70.4,69.2,29.92,SE,124,0.0,1.0,96,0.00,,,0.00,Wunderground v.1.15,2017-07-21 12:24:00,
2017-07-21 07:25:00,70.4,69.2,29.92,SE,124,0.0,1.0,96,0.00,,,0.00,Wunderground v.1.15,2017-07-21 12:25:00,
2017-07-21 07:31:00,70.7,69.5,29.92,SE,124,0.0,0.0,96,0.00,,,0.00,Wunderground v.1.15,2017-07-21 12:31:00,
2017-07-21 07:37:00,70.9,69.7,29.92,SE,124,0.0,0.0,96,0.00,,,0.00,Wunderground v.1.15,2017-07-21 12:37:00,
2017-07-21 07:42:00,71.2,70.0,29.92,SE,124,0.0,0.0,96,0.00,,,0.00,Wunderground v.1.15,2017-07-21 12:42:00,
2017-07-21 07:48:00,71.4,69.9,29.92,SE,124,0.0,0.0,95,0.00,,,0.00,Wunderground v.1.15,2017-07-21 12:48:00,
2017-07-21 07:53:00,71.7,69.9,29.92,SE,128,0.0,1.0,94,0.00,,,0.00,Wunderground v.1.15,2017-07-21 12:53:00,
2017-07-21 07:58:00,72.0,69.9,29.92,ESE,122,1.0,2.0,93,0.00,,,0.00,Wunderground v.1.15,2017-07-21 12:58:00,
2017-07-21 08:04:00,72.3,69.8,29.92,ESE,119,1.0,3.0,92,0.00,,,0.00,Wunderground v.1.15,2017-07-21 13:04:00,
2017-07-21 08:09:00,72.7,70.2,29.93,SE,142,1.0,3.0,92,0.00,,,0.00,Wunderground v.1.15,2017-07-21 13:09:00,
2017-07-21 08:15:00,73.2,70.4,29.93,ESE,123,0.0,2.0,91,0.00,,,0.00,Wunderground v.1.15,2017-07-21 13:15:00,
2017-07-21 08:20:00,73.5,70.7,29.93,SE,134,1.0,1.0,91,0.00,,,0.00,Wunderground v.1.15,2017-07-21 13:20:00,
2017-07-21 08:26:00,73.6,70.5,29.93,East,92,1.0,3.0,90,0.00,,,0.00,Wunderground v.1.15,2017-07-21 13:26:00,
2017-07-21 08:31:00,73.6,70.2,29.94,SSE,157,0.0,0.0,89,0.00,,,0.00,Wunderground v.1.15,2017-07-21 13:31:00,
2017-07-21 08:37:00,73.8,70.7,29.93,SSE,157,0.0,0.0,90,0.00,,,0.00,Wunderground v.1.15,2017-07-21 13:37:00,
2017-07-21 08:43:00,73.9,70.8,29.93,ESE,119,0.0,3.0,90,0.00,,,0.00,Wunderground v.1.15,2017-07-21 13:43:00,
2017-07-21 08:48:00,74.0,70.6,29.94,SE,130,1.0,3.0,89,0.00,,,0.00,Wunderground v.1.15,2017-07-21 13:48:00,
2017-07-21 08:54:00,74.3,70.8,29.94,East,94,2.0,2.0,89,0.00,,,0.00,Wunderground v.1.15,2017-07-21 13:54:00,
2017-07-21 08:59:00,74.5,70.7,29.94,SE,128,1.0,3.0,88,0.00,,,0.00,Wunderground v.1.15,2017-07-21 13:59:00,
2017-07-21 09:05:00,74.7,70.9,29.95,SSE,152,1.0,3.0,88,0.00,,,0.00,Wunderground v.1.15,2017-07-21 14:05:00,
2017-07-21 09:11:00,75.0,71.2,29.95,SE,140,1.0,4.0,88,0.00,,,0.00,Wunderground v.1.15,2017-07-21 14:11:00,
2017-07-21 09:16:00,75.1,71.0,29.95,SE,132,2.0,4.0,87,0.00,,,0.00,Wunderground v.1.15,2017-07-21 14:16:00,
2017-07-21 09:22:00,75.5,71.4,29.96,ESE,121,2.0,2.0,87,0.00,,,0.00,Wunderground v.1.15,2017-07-21 14:22:00,
2017-07-21 09:27:00,75.9,71.8,29.96,SE,128,1.0,2.0,87,0.00,,,0.00,Wunderground v.1.15,2017-07-21 14:27:00,
2017-07-21 09:32:00,76.3,72.1,29.96,SE,128,1.0,1.0,87,0.00,,,0.00,Wunderground v.1.15,2017-07-21 14:32:00,
2017-07-21 09:38:00,76.6,71.7,29.96,SW,232,1.0,2.0,85,0.00,,,0.00,Wunderground v.1.15,2017-07-21 14:38:00,
2017-07-21 09:44:00,76.5,71.3,29.96,ESE,121,1.0,4.0,84,0.00,,,0.00,Wunderground v.1.15,2017-07-21 14:44:00,
2017-07-21 09:49:00,76.2,71.7,29.96,East,80,2.0,4.0,86,0.00,,,0.00,Wunderground v.1.15,2017-07-21 14:49:00,
2017-07-21 09:54:00,76.1,71.3,29.95,SE,127,2.0,3.0,85,0.00,,,0.00,Wunderground v.1.15,2017-07-21 14:54:00,
2017-07-21 09:59:00,76.1,71.3,29.94,SE,141,2.0,4.0,85,0.00,,,0.00,Wunderground v.1.15,2017-07-21 14:59:00,
2017-07-21 10:05:00,76.0,71.5,29.94,SSE,150,2.0,4.0,86,0.00,,,0.00,Wunderground v.1.15,2017-07-21 15:05:00,
2017-07-21 10:10:00,76.1,72.3,29.95,SSE,150,1.0,1.0,88,0.00,,,0.00,Wunderground v.1.15,2017-07-21 15:10:00,